Time;durP1;ratioP1;P1;durP2;ratioP2;P2;SDS_P1;SDS_P2;PMS_P1;PMS_P2;Temp;Humidity;BMP_temperature;BMP_pressure;BME280_temperature;BME280_humidity;BME280_pressure;Samples;Min_cycle;Max_cycle;Signal;HPM_P1;HPM_P2
2021/10/11 00:01:10;;;;;;;38.58;26.05;;;;;;;4.42;74.67;101836.87;1768229;80;21484;-71
2021/10/11 00:03:37;;;;;;;38.48;25.00;;;;;;;4.41;74.76;101837.88;1770402;80;20994;-71
2021/10/11 00:06:04;;;;;;;33.92;24.57;;;;;;;4.41;74.85;101833.41;1769163;80;20966;-72
2021/10/11 00:08:32;;;;;;;34.40;23.42;;;;;;;4.39;74.89;101830.62;1764302;78;21086;-72
2021/10/11 00:11:00;;;;;;;37.53;24.18;;;;;;;4.37;75.00;101826.81;1776657;80;20995;-71
2021/10/11 00:13:34;;;;;;;35.35;23.98;;;;;;;4.39;75.14;101827.47;1782721;80;21034;-71
2021/10/11 00:16:03;;;;;;;35.03;24.15;;;;;;;4.40;75.26;101827.77;1787155;80;22203;-71
2021/10/11 00:18:40;;;;;;;33.15;22.48;;;;;;;4.41;75.37;101824.66;1782527;80;21010;-72
2021/10/11 00:21:39;;;;;;;32.93;22.80;;;;;;;4.40;75.39;101821.67;1774878;78;21101;-72
2021/10/11 00:24:10;;;;;;;37.08;23.00;;;;;;;4.38;75.41;101817.08;1762864;80;21109;-71
2021/10/11 00:26:37;;;;;;;37.20;24.15;;;;;;;4.36;75.44;101815.93;1762870;80;21518;-71
2021/10/11 00:29:05;;;;;;;35.73;23.67;;;;;;;4.34;75.44;101808.67;1762640;78;21030;-70
2021/10/11 00:31:33;;;;;;;37.17;22.37;;;;;;;4.33;75.48;101814.97;1765338;78;21029;-70
2021/10/11 00:34:00;;;;;;;35.55;22.70;;;;;;;4.33;75.50;101810.19;1776679;80;20938;-70
2021/10/11 00:36:27;;;;;;;32.85;21.73;;;;;;;4.31;75.54;101805.09;1765420;78;21132;-70
2021/10/11 00:38:54;;;;;;;33.83;21.77;;;;;;;4.29;75.59;101808.42;1761315;80;21474;-70
2021/10/11 00:41:21;;;;;;;33.30;22.42;;;;;;;4.24;75.61;101808.14;1773014;80;21117;-71
2021/10/11 00:43:48;;;;;;;35.55;23.20;;;;;;;4.21;75.66;101811.15;1765942;80;21030;-70
2021/10/11 00:46:15;;;;;;;34.60;23.83;;;;;;;4.18;75.69;101806.25;1751600;80;20967;-71
2021/10/11 00:48:42;;;;;;;31.75;22.17;;;;;;;4.15;75.74;101802.66;1767979;80;21024;-71
2021/10/11 00:51:08;;;;;;;31.00;22.52;;;;;;;4.09;75.85;101802.87;1760714;78;21059;-71
2021/10/11 00:53:35;;;;;;;32.83;22.27;;;;;;;4.07;76.05;101804.88;1784391;78;21022;-71
2021/10/11 00:56:02;;;;;;;34.92;22.85;;;;;;;4.05;76.26;101802.09;1771802;80;21487;-71
2021/10/11 00:58:29;;;;;;;32.42;22.82;;;;;;;4.02;76.50;101798.52;1777539;80;21111;-71
2021/10/11 01:00:55;;;;;;;33.40;22.98;;;;;;;4.01;76.79;101800.31;1782230;80;21764;-71
2021/10/11 01:03:22;;;;;;;31.60;22.42;;;;;;;4.02;77.05;101797.19;1780492;78;20931;-71
2021/10/11 01:05:49;;;;;;;31.20;21.40;;;;;;;3.99;77.25;101794.41;1785525;80;21029;-71
2021/10/11 01:08:16;;;;;;;33.28;22.07;;;;;;;3.98;77.37;101802.00;1779213;80;21057;-71
2021/10/11 01:10:46;;;;;;;31.85;22.22;;;;;;;3.96;77.43;101790.30;1791126;80;21016;-71
2021/10/11 01:13:13;;;;;;;30.80;20.95;;;;;;;3.94;77.56;101788.83;1745695;78;21533;-71
2021/10/11 01:15:40;;;;;;;32.05;22.02;;;;;;;3.94;77.64;101784.87;1781370;80;21417;-71
2021/10/11 01:18:07;;;;;;;33.08;22.05;;;;;;;3.91;77.64;101780.77;1766448;80;20995;-70
2021/10/11 01:20:34;;;;;;;33.78;22.45;;;;;;;3.87;77.70;101778.17;1772781;77;20892;-71
2021/10/11 01:23:00;;;;;;;31.87;22.00;;;;;;;3.85;77.80;101774.06;1770642;78;21030;-71
2021/10/11 01:25:27;;;;;;;32.65;21.02;;;;;;;3.80;77.87;101773.30;1763834;80;21786;-71
2021/10/11 01:27:54;;;;;;;30.72;20.77;;;;;;;3.76;78.00;101772.03;1784418;80;20963;-71
2021/10/11 01:30:21;;;;;;;28.60;20.32;;;;;;;3.75;78.05;101771.69;1767237;80;20999;-71
2021/10/11 01:32:47;;;;;;;39.65;27.05;;;;;;;3.72;77.99;101769.44;1774297;80;21562;-71
2021/10/11 01:35:20;;;;;;;45.60;35.03;;;;;;;3.70;77.94;101764.83;1760508;80;20931;-71
2021/10/11 01:37:47;;;;;;;45.35;36.48;;;;;;;3.65;77.89;101763.22;1775775;78;21106;-71
2021/10/11 01:40:15;;;;;;;43.28;32.30;;;;;;;3.58;77.94;101757.02;1764725;80;21003;-71
2021/10/11 01:42:42;;;;;;;42.38;30.65;;;;;;;3.56;78.08;101763.82;1775385;80;21085;-70
2021/10/11 01:45:10;;;;;;;42.85;29.72;;;;;;;3.56;78.18;101768.28;1763003;80;21127;-71
2021/10/11 01:47:37;;;;;;;43.78;29.63;;;;;;;3.52;78.39;101768.64;1774275;80;21537;-71
2021/10/11 01:50:11;;;;;;;42.43;27.35;;;;;;;3.52;78.56;101759.88;1787018;78;21073;-71
2021/10/11 01:52:40;;;;;;;38.10;26.27;;;;;;;3.49;78.78;101758.44;1772453;80;21093;-70
2021/10/11 01:55:08;;;;;;;35.95;25.05;;;;;;;3.48;79.03;101757.28;1782800;80;20987;-71
2021/10/11 01:57:36;;;;;;;31.97;23.40;;;;;;;3.46;79.20;101756.16;1777579;80;21113;-69
2021/10/11 02:00:06;;;;;;;34.27;23.10;;;;;;;3.46;79.29;101760.12;1770527;78;20987;-71
2021/10/11 02:02:38;;;;;;;34.10;23.27;;;;;;;3.46;79.43;101756.16;1782769;80;21050;-71
2021/10/11 02:05:12;;;;;;;35.65;21.97;;;;;;;3.46;79.48;101754.83;1772106;80;21030;-71
2021/10/11 02:07:39;;;;;;;36.08;22.93;;;;;;;3.45;79.50;101757.14;1763863;80;21541;-71
2021/10/11 02:10:13;;;;;;;32.90;22.37;;;;;;;3.44;79.48;101754.19;1764497;80;21116;-71
2021/10/11 02:12:43;;;;;;;32.17;22.02;;;;;;;3.44;79.44;101748.90;1768459;80;21105;-72
2021/10/11 02:15:23;;;;;;;34.10;23.42;;;;;;;3.41;79.39;101744.48;1771029;80;21194;-71
2021/10/11 02:17:51;;;;;;;34.45;22.25;;;;;;;3.40;79.32;101744.98;1769368;80;21002;-72
2021/10/11 02:20:25;;;;;;;32.25;22.60;;;;;;;3.35;79.26;101743.88;1767017;80;20955;-71
2021/10/11 02:22:51;;;;;;;34.23;22.27;;;;;;;3.29;79.26;101740.12;1789086;78;21493;-71
2021/10/11 02:25:19;;;;;;;34.40;23.95;;;;;;;3.24;79.24;101742.00;1769962;78;21027;-72
2021/10/11 02:27:47;;;;;;;33.85;23.73;;;;;;;3.19;79.25;101734.28;1768995;80;21105;-71
2021/10/11 02:30:15;;;;;;;32.65;22.42;;;;;;;3.17;79.25;101731.02;1771925;80;21054;-71
2021/10/11 02:32:44;;;;;;;35.68;21.35;;;;;;;3.13;79.24;101728.42;1776841;80;20943;-71
2021/10/11 02:35:11;;;;;;;30.72;20.82;;;;;;;3.07;79.25;101728.63;1780869;78;21695;-71
2021/10/11 02:37:38;;;;;;;33.50;20.45;;;;;;;3.00;79.26;101723.24;1764794;80;21073;-71
2021/10/11 02:40:06;;;;;;;34.05;22.65;;;;;;;2.93;79.30;101722.79;1770071;80;21123;-70
2021/10/11 02:42:34;;;;;;;32.98;21.62;;;;;;;2.87;79.33;101719.57;1760928;80;21507;-70
2021/10/11 02:45:02;;;;;;;33.53;23.25;;;;;;;2.85;79.41;101718.41;1768710;78;21061;-69
2021/10/11 02:47:32;;;;;;;34.80;24.12;;;;;;;2.84;79.42;101718.60;1768563;80;21093;-70
2021/10/11 02:50:00;;;;;;;34.08;23.00;;;;;;;2.82;79.58;101709.53;1761992;80;21057;-70
2021/10/11 02:52:31;;;;;;;34.53;23.77;;;;;;;2.83;79.75;101708.55;1762252;80;21145;-71
2021/10/11 02:54:57;;;;;;;33.33;22.17;;;;;;;2.83;79.88;101699.32;1785622;80;20999;-71
2021/10/11 02:57:24;;;;;;;33.98;22.15;;;;;;;2.83;80.02;101692.72;1783304;78;21105;-72
2021/10/11 02:59:51;;;;;;;31.45;22.93;;;;;;;2.80;80.15;101688.61;1767960;80;21003;-71
2021/10/11 03:02:18;;;;;;;31.15;21.87;;;;;;;2.77;80.29;101690.79;1762663;80;21073;-71
2021/10/11 03:04:47;;;;;;;31.97;22.60;;;;;;;2.76;80.32;101693.93;1786385;80;21785;-72
2021/10/11 03:07:14;;;;;;;31.60;23.18;;;;;;;2.80;80.35;101689.12;1776175;80;21026;-70
2021/10/11 03:09:40;;;;;;;32.48;21.80;;;;;;;2.81;80.39;101685.47;1777314;78;21046;-71
2021/10/11 03:12:08;;;;;;;29.07;21.82;;;;;;;2.82;80.46;101679.19;1777469;80;21418;-71
2021/10/11 03:14:34;;;;;;;30.48;22.15;;;;;;;2.82;80.56;101677.36;1769590;80;21253;-71
2021/10/11 03:17:01;;;;;;;31.73;22.00;;;;;;;2.80;80.70;101674.10;1763717;80;21501;-71
2021/10/11 03:19:30;;;;;;;31.77;22.42;;;;;;;2.82;80.87;101673.41;1770841;78;20986;-71
2021/10/11 03:21:58;;;;;;;31.45;20.97;;;;;;;2.84;81.02;101665.83;1770032;80;20935;-69
2021/10/11 03:24:24;;;;;;;31.20;20.72;;;;;;;2.85;81.13;101670.92;1765869;79;21041;-69
2021/10/11 03:26:51;;;;;;;30.72;20.35;;;;;;;2.86;81.19;101668.59;1769160;80;21030;-70
2021/10/11 03:29:19;;;;;;;29.12;20.90;;;;;;;2.86;81.24;101675.69;1773724;80;21165;-69
2021/10/11 03:31:56;;;;;;;28.40;20.17;;;;;;;2.86;81.33;101677.83;1782084;80;21501;-71
2021/10/11 03:34:42;;;;;;;30.48;20.40;;;;;;;2.86;81.41;101675.69;1764703;80;21031;-70
2021/10/11 03:37:24;;;;;;;30.52;20.25;;;;;;;2.82;81.49;101672.59;1762607;80;20971;-70
2021/10/11 03:40:06;;;;;;;27.67;20.37;;;;;;;2.82;81.61;101672.59;1785091;78;21030;-70
2021/10/11 03:42:34;;;;;;;30.43;20.88;;;;;;;2.85;81.60;101672.23;1771817;80;21837;-69
2021/10/11 03:45:01;;;;;;;29.37;20.70;;;;;;;2.84;81.54;101671.92;1766459;80;21549;-70
2021/10/11 03:47:29;;;;;;;27.30;20.52;;;;;;;2.85;81.48;101668.28;1767471;80;21097;-70
2021/10/11 03:50:00;;;;;;;29.95;20.85;;;;;;;2.85;81.45;101666.95;1766079;80;21093;-70
2021/10/11 03:52:29;;;;;;;29.20;20.02;;;;;;;2.84;81.36;101662.69;1761026;80;21065;-70
2021/10/11 03:54:57;;;;;;;27.98;20.12;;;;;;;2.81;81.26;101665.17;1773081;80;21144;-70
2021/10/11 03:57:25;;;;;;;32.13;20.55;;;;;;;2.76;81.13;101659.63;1765840;80;20976;-70
2021/10/11 03:59:52;;;;;;;28.80;19.70;;;;;;;2.74;81.03;101660.30;1762954;78;21077;-71
2021/10/11 04:02:20;;;;;;;28.40;20.32;;;;;;;2.72;80.94;101671.52;1774206;80;21461;-70
2021/10/11 04:04:47;;;;;;;25.82;18.45;;;;;;;2.72;80.78;101672.02;1771461;80;20932;-70
2021/10/11 04:07:16;;;;;;;25.55;18.77;;;;;;;2.69;80.59;101664.46;1762418;80;21114;-70
2021/10/11 04:09:46;;;;;;;27.80;19.80;;;;;;;2.62;80.37;101661.71;1764758;80;20963;-70
2021/10/11 04:12:22;;;;;;;27.60;19.32;;;;;;;2.58;80.23;101663.88;1785361;80;21042;-71
2021/10/11 04:14:53;;;;;;;30.20;20.00;;;;;;;2.49;80.11;101657.02;1775888;80;21081;-70
2021/10/11 04:17:38;;;;;;;29.65;20.45;;;;;;;2.41;80.05;101651.83;1760204;80;20978;-70
2021/10/11 04:20:14;;;;;;;29.67;20.62;;;;;;;2.35;80.06;101648.06;1779015;78;21467;-70
2021/10/11 04:22:42;;;;;;;30.68;21.52;;;;;;;2.29;80.07;101651.41;1772793;80;21530;-70
2021/10/11 04:25:08;;;;;;;29.87;20.57;;;;;;;2.23;80.10;101651.28;1774230;80;21157;-70
2021/10/11 04:27:42;;;;;;;28.45;21.37;;;;;;;2.22;80.25;101649.66;1768892;80;21256;-69
2021/10/11 04:30:13;;;;;;;29.27;21.73;;;;;;;2.23;80.45;101651.28;1717294;81;21554;-71
2021/10/11 04:32:49;;;;;;;29.55;20.25;;;;;;;2.23;80.66;101645.51;1777673;80;22002;-71
2021/10/11 04:35:22;;;;;;;29.27;19.25;;;;;;;2.24;80.79;101643.22;1771744;80;21450;-70
2021/10/11 04:37:49;;;;;;;29.18;20.60;;;;;;;2.25;80.75;101637.44;1718761;81;21502;-70
2021/10/11 04:40:15;;;;;;;27.40;21.35;;;;;;;2.24;80.74;101640.58;1784982;80;21086;-71
2021/10/11 04:42:42;;;;;;;30.05;20.97;;;;;;;2.21;80.75;101634.84;1766841;79;21580;-70
2021/10/11 04:45:11;;;;;;;27.52;20.05;;;;;;;2.24;80.89;101636.63;1769350;80;21109;-70
2021/10/11 04:47:41;;;;;;;31.52;22.05;;;;;;;2.26;81.01;101636.44;1780955;79;21050;-70
2021/10/11 04:50:08;;;;;;;31.75;22.52;;;;;;;2.32;81.14;101637.05;1765110;80;21015;-70
2021/10/11 04:52:36;;;;;;;31.62;21.80;;;;;;;2.39;81.38;101631.90;1767551;78;21780;-70
2021/10/11 04:55:03;;;;;;;30.23;21.65;;;;;;;2.46;81.62;101636.28;1766395;78;21015;-70
2021/10/11 04:57:32;;;;;;;30.92;21.82;;;;;;;2.56;81.91;101632.08;1769336;78;22162;-71
2021/10/11 05:00:12;;;;;;;30.10;21.90;;;;;;;2.65;82.19;101626.25;1767932;78;20988;-71
2021/10/11 05:02:40;;;;;;;30.00;21.42;;;;;;;2.74;82.36;101627.83;1775677;80;21014;-70
2021/10/11 05:05:09;;;;;;;29.65;22.42;;;;;;;2.86;82.55;101628.19;1767258;80;21041;-70
2021/10/11 05:07:36;;;;;;;34.90;24.55;;;;;;;2.94;82.72;101630.27;1780070;78;20911;-71
2021/10/11 05:10:06;;;;;;;34.25;26.50;;;;;;;3.02;82.85;101630.17;1765475;79;21712;-72
2021/10/11 05:12:33;;;;;;;39.20;29.95;;;;;;;3.11;82.89;101628.78;1770757;78;21049;-71
2021/10/11 05:15:02;;;;;;;40.20;30.27;;;;;;;3.19;82.91;101632.64;1774857;78;21033;-72
2021/10/11 05:17:29;;;;;;;41.80;29.87;;;;;;;3.26;82.91;101622.52;1780145;78;21053;-71
2021/10/11 05:19:56;;;;;;;37.20;27.73;;;;;;;3.35;82.90;101626.36;1778640;78;21710;-71
2021/10/11 05:22:24;;;;;;;35.08;25.60;;;;;;;3.41;82.89;101621.17;1782593;80;21521;-71
2021/10/11 05:24:51;;;;;;;33.53;24.52;;;;;;;3.51;82.88;101611.64;1769116;80;20955;-71
2021/10/11 05:27:20;;;;;;;33.13;23.75;;;;;;;3.56;82.72;101611.92;1778219;80;21085;-71
2021/10/11 05:29:49;;;;;;;31.68;22.65;;;;;;;3.58;82.46;101613.86;1778244;80;21022;-72
2021/10/11 05:32:17;;;;;;;36.53;25.35;;;;;;;3.62;82.22;101609.87;1769216;78;21686;-71
2021/10/11 05:34:48;;;;;;;37.00;25.72;;;;;;;3.67;81.91;101613.27;1771439;80;21074;-70
2021/10/11 05:37:23;;;;;;;34.33;25.52;;;;;;;3.74;81.62;101605.72;1744950;80;21132;-71
2021/10/11 05:39:54;;;;;;;36.85;27.30;;;;;;;3.82;81.39;101612.73;1782051;78;21081;-70
2021/10/11 05:42:21;;;;;;;38.30;27.25;;;;;;;3.92;81.26;101611.12;1771806;78;21046;-71
2021/10/11 05:44:47;;;;;;;36.15;26.73;;;;;;;4.00;80.99;101621.05;1761255;79;21170;-71
2021/10/11 05:47:14;;;;;;;37.53;25.72;;;;;;;4.08;80.81;101612.20;1771035;78;21782;-72
2021/10/11 05:49:41;;;;;;;35.17;24.23;;;;;;;4.23;80.54;101610.81;1766224;80;21196;-72
2021/10/11 05:52:10;;;;;;;31.30;24.63;;;;;;;4.36;80.24;101610.94;1790008;77;21027;-72
2021/10/11 05:54:39;;;;;;;36.83;26.68;;;;;;;4.49;79.84;101609.42;1770623;80;21493;-71
2021/10/11 05:57:10;;;;;;;38.90;25.02;;;;;;;4.61;79.46;101606.58;1775373;80;21057;-71
2021/10/11 05:59:38;;;;;;;34.03;24.35;;;;;;;4.73;79.13;101601.56;1779555;80;21184;-71
2021/10/11 06:02:10;;;;;;;37.58;25.00;;;;;;;4.83;78.77;101605.50;1765757;80;21532;-71
2021/10/11 06:04:38;;;;;;;30.80;23.42;;;;;;;4.94;78.36;101601.02;1769532;80;21034;-72
2021/10/11 06:07:07;;;;;;;29.02;21.77;;;;;;;5.07;77.92;101606.90;1767781;80;21029;-70
2021/10/11 06:09:35;;;;;;;29.85;22.48;;;;;;;5.19;77.47;101609.80;1755997;80;21062;-70
2021/10/11 06:12:03;;;;;;;32.80;22.58;;;;;;;5.28;76.98;101602.02;1777134;80;21102;-70
2021/10/11 06:14:30;;;;;;;30.43;22.22;;;;;;;5.40;76.60;101607.08;1774031;78;21057;-70
2021/10/11 06:17:00;;;;;;;32.73;23.15;;;;;;;5.52;76.08;101601.20;1765467;80;21062;-72
2021/10/11 06:19:27;;;;;;;30.95;22.27;;;;;;;5.63;75.22;101598.00;1759965;80;21151;-71
2021/10/11 06:21:55;;;;;;;30.75;21.52;;;;;;;5.72;74.54;101595.97;1762873;78;20990;-72
2021/10/11 06:24:22;;;;;;;28.38;20.95;;;;;;;5.79;74.06;101594.16;1775586;80;21987;-74
2021/10/11 06:26:51;;;;;;;40.58;22.50;;;;;;;5.90;73.48;101594.10;1779705;80;21061;-73
2021/10/11 06:29:19;;;;;;;30.00;21.50;;;;;;;6.01;73.11;101597.52;1774337;78;21039;-73
2021/10/11 06:31:59;;;;;;;28.90;20.52;;;;;;;6.13;72.67;101590.61;1773141;78;21089;-73
2021/10/11 06:34:45;;;;;;;31.42;22.00;;;;;;;6.23;72.10;101589.70;1773302;78;21036;-73
2021/10/11 06:37:19;;;;;;;28.47;20.30;;;;;;;6.34;71.41;101586.43;1772106;80;21619;-73
2021/10/11 06:39:53;;;;;;;34.60;23.90;;;;;;;6.40;70.87;101586.13;1773115;80;21092;-73
2021/10/11 06:42:21;;;;;;;31.07;22.30;;;;;;;6.50;70.55;101591.84;1768272;78;21013;-72
2021/10/11 06:44:48;;;;;;;30.17;21.73;;;;;;;6.64;70.19;101593.17;1770700;80;21018;-73
2021/10/11 06:47:19;;;;;;;27.75;20.62;;;;;;;6.76;69.87;101596.33;1718428;81;21048;-75
2021/10/11 06:49:53;;;;;;;33.38;22.73;;;;;;;6.90;69.33;101585.17;1772529;80;22028;-73
2021/10/11 06:52:22;;;;;;;31.90;21.80;;;;;;;7.02;68.39;101580.86;1772611;80;21010;-73
2021/10/11 06:54:48;;;;;;;31.00;21.48;;;;;;;7.12;67.90;101580.43;1764745;80;21063;-74
2021/10/11 06:57:16;;;;;;;30.43;22.42;;;;;;;7.22;67.17;101576.01;1768234;80;21046;-73
2021/10/11 06:59:44;;;;;;;32.15;22.50;;;;;;;7.31;66.69;101577.41;1718493;81;21144;-73
2021/10/11 07:02:11;;;;;;;29.12;21.45;;;;;;;7.43;66.51;101577.55;1773692;80;21104;-74
2021/10/11 07:04:40;;;;;;;30.23;21.77;;;;;;;7.57;66.13;101576.98;1770770;80;21075;-75
2021/10/11 07:07:07;;;;;;;31.25;21.57;;;;;;;7.69;65.47;101573.97;1771985;80;21081;-74
2021/10/11 07:09:34;;;;;;;30.70;22.10;;;;;;;7.84;64.60;101569.70;1774441;80;21716;-74
2021/10/11 07:12:02;;;;;;;26.95;19.25;;;;;;;7.95;64.04;101569.01;1775742;80;21553;-75
2021/10/11 07:14:29;;;;;;;33.95;21.30;;;;;;;8.06;63.27;101559.52;1767336;80;22226;-75
2021/10/11 07:16:56;;;;;;;27.30;19.70;;;;;;;8.15;62.68;101557.71;1772399;80;21339;-75
2021/10/11 07:19:23;;;;;;;29.52;21.05;;;;;;;8.26;62.49;101541.58;1768846;80;21493;-76
2021/10/11 07:21:53;;;;;;;31.87;21.85;;;;;;;8.38;61.61;101539.03;1783088;80;20984;-74
2021/10/11 07:24:25;;;;;;;31.23;21.25;;;;;;;8.48;61.43;101536.69;1747509;80;21065;-74
2021/10/11 07:26:52;;;;;;;32.75;22.40;;;;;;;8.59;61.15;101520.53;1769898;80;21099;-75
2021/10/11 07:29:19;;;;;;;27.95;21.37;;;;;;;8.66;60.77;101523.42;1774834;80;21484;-75
2021/10/11 07:31:46;;;;;;;30.10;21.10;;;;;;;8.74;60.46;101516.98;1770321;80;21054;-74
2021/10/11 07:34:16;;;;;;;26.75;19.30;;;;;;;8.82;60.21;101520.70;1773269;80;21089;-73
2021/10/11 07:36:43;;;;;;;29.87;21.02;;;;;;;8.93;59.85;101513.81;1778454;80;21082;-72
2021/10/11 07:39:11;;;;;;;26.48;19.60;;;;;;;9.07;59.40;101511.28;1768350;80;21805;-71
2021/10/11 07:41:41;;;;;;;26.93;18.20;;;;;;;9.21;58.88;101506.59;1752346;80;21062;-77
2021/10/11 07:44:09;;;;;;;24.23;17.92;;;;;;;9.37;58.14;101509.16;1778490;80;21046;-72
2021/10/11 07:46:38;;;;;;;24.63;17.95;;;;;;;9.50;57.36;101504.98;1772931;78;21105;-70
2021/10/11 07:49:05;;;;;;;27.87;20.40;;;;;;;9.63;57.07;101502.66;1771866;78;21121;-71
2021/10/11 07:51:33;;;;;;;23.85;17.07;;;;;;;9.77;56.82;101499.27;1772906;78;21764;-71
2021/10/11 07:54:01;;;;;;;25.20;18.65;;;;;;;9.92;56.44;101501.52;1776930;80;21051;-72
2021/10/11 07:56:28;;;;;;;24.72;18.48;;;;;;;10.02;55.99;101503.91;1764540;79;21105;-70
2021/10/11 07:58:56;;;;;;;23.77;18.12;;;;;;;10.16;55.54;101506.36;1767115;80;21007;-71
2021/10/11 08:01:24;;;;;;;24.15;17.35;;;;;;;10.27;55.24;101508.28;1782402;80;21097;-71
2021/10/11 08:03:51;;;;;;;26.62;20.00;;;;;;;10.41;55.16;101506.19;1774953;80;21889;-72
2021/10/11 08:06:18;;;;;;;30.05;20.85;;;;;;;10.52;54.72;101500.83;1789341;80;21484;-70
2021/10/11 08:08:45;;;;;;;24.52;18.80;;;;;;;10.64;54.19;101483.99;1772785;78;20987;-71
2021/10/11 08:11:12;;;;;;;25.72;19.15;;;;;;;10.76;53.96;101480.26;1763799;80;21050;-70
2021/10/11 08:13:39;;;;;;;25.97;18.75;;;;;;;10.90;53.95;101478.66;1776521;80;20998;-71
2021/10/11 08:16:07;;;;;;;26.33;19.20;;;;;;;11.06;53.11;101486.47;1791337;80;21005;-72
2021/10/11 08:18:35;;;;;;;24.02;17.75;;;;;;;11.19;52.83;101488.34;1764160;80;20988;-71
2021/10/11 08:21:04;;;;;;;22.55;16.05;;;;;;;11.28;52.03;101493.56;1766535;80;20994;-70
2021/10/11 08:23:36;;;;;;;27.30;18.77;;;;;;;11.39;51.34;101495.13;1765610;80;21553;-70
2021/10/11 08:26:02;;;;;;;24.30;18.17;;;;;;;11.48;51.23;101493.16;1772041;80;21524;-70
2021/10/11 08:28:29;;;;;;;24.32;18.07;;;;;;;11.59;51.41;101485.32;1774436;80;21098;-69
2021/10/11 08:30:56;;;;;;;23.32;15.70;;;;;;;11.69;51.09;101478.27;1772491;80;21560;-71
2021/10/11 08:33:24;;;;;;;21.87;16.15;;;;;;;11.80;50.46;101467.20;1777703;80;21395;-70
2021/10/11 08:35:51;;;;;;;25.08;17.37;;;;;;;11.88;49.49;101460.16;1773596;78;21564;-70
2021/10/11 08:38:19;;;;;;;24.10;16.48;;;;;;;11.93;49.76;101458.88;1775763;80;21575;-71
2021/10/11 08:40:52;;;;;;;25.65;15.28;;;;;;;12.06;49.36;101451.58;1785035;80;21094;-72
2021/10/11 08:43:22;;;;;;;19.77;12.30;;;;;;;12.20;49.36;101446.16;1770254;80;21030;-70
2021/10/11 08:46:00;;;;;;;21.23;13.30;;;;;;;12.35;47.88;101439.69;1776676;80;21116;-71
2021/10/11 08:48:34;;;;;;;17.07;12.57;;;;;;;12.48;46.99;101429.68;1762172;80;21228;-70
2021/10/11 08:51:15;;;;;;;16.07;12.53;;;;;;;12.57;46.75;101434.36;1774277;80;21330;-71
2021/10/11 08:53:46;;;;;;;17.57;11.67;;;;;;;12.72;46.34;101427.03;1740891;80;21214;-71
2021/10/11 08:56:27;;;;;;;13.17;10.60;;;;;;;12.82;46.56;101425.80;1767214;80;21054;-71
2021/10/11 08:59:08;;;;;;;15.70;11.63;;;;;;;12.93;44.77;101416.00;1767361;79;21247;-70
2021/10/11 09:01:47;;;;;;;17.07;11.63;;;;;;;13.02;45.13;101410.47;1774167;80;21773;-71
2021/10/11 09:04:22;;;;;;;18.07;12.00;;;;;;;13.14;44.69;101409.80;1789046;80;21793;-71
2021/10/11 09:07:13;;;;;;;17.57;12.07;;;;;;;13.20;44.47;101399.94;1778982;80;21955;-70
2021/10/11 09:10:07;;;;;;;13.43;9.43;;;;;;;13.27;44.35;101400.57;1763801;80;21239;-71
2021/10/11 09:13:00;;;;;;;14.97;9.87;;;;;;;13.44;43.96;101388.91;1767840;80;21341;-70
2021/10/11 09:15:42;;;;;;;13.40;8.77;;;;;;;13.56;43.68;101388.21;1764633;80;21202;-70
2021/10/11 09:18:12;;;;;;;16.50;9.53;;;;;;;13.72;43.18;101395.83;1763018;80;21285;-71
2021/10/11 09:20:56;;;;;;;13.30;9.23;;;;;;;13.84;42.95;101389.75;1757043;80;21736;-70
2021/10/11 09:23:38;;;;;;;12.27;8.60;;;;;;;13.92;42.49;101380.39;1767588;80;21288;-71
2021/10/11 09:26:27;;;;;;;11.38;8.28;;;;;;;14.02;42.60;101379.14;1785399;80;21221;-71
2021/10/11 09:29:01;;;;;;;11.37;8.03;;;;;;;14.09;40.46;101367.62;1790897;80;21459;-70
2021/10/11 09:31:41;;;;;;;10.63;8.30;;;;;;;14.11;40.92;101366.00;1766934;80;21303;-70
2021/10/11 09:34:28;;;;;;;16.43;9.27;;;;;;;14.18;41.29;101364.72;1759445;81;21769;-70
2021/10/11 09:37:22;;;;;;;11.53;8.23;;;;;;;14.26;40.35;101360.17;1759980;80;21167;-72
2021/10/11 09:40:15;;;;;;;14.03;7.93;;;;;;;14.33;41.11;101359.94;1759456;80;21181;-72
2021/10/11 09:43:23;;;;;;;11.87;6.80;;;;;;;14.43;40.26;101357.29;1760394;80;21296;-72
2021/10/11 09:46:19;;;;;;;9.07;6.60;;;;;;;14.56;40.17;101351.19;1761137;79;21358;-70
2021/10/11 09:49:07;;;;;;;10.77;7.23;;;;;;;14.70;40.07;101347.72;1765268;78;21220;-72
2021/10/11 09:51:45;;;;;;;8.83;6.10;;;;;;;14.80;40.05;101342.11;1771678;80;21312;-71
2021/10/11 09:54:16;;;;;;;10.73;7.40;;;;;;;14.88;39.31;101339.72;1781012;78;21920;-70
2021/10/11 09:56:51;;;;;;;9.87;6.07;;;;;;;14.92;39.45;101344.02;1768534;79;21383;-70
2021/10/11 09:59:47;;;;;;;8.17;5.80;;;;;;;14.97;39.38;101331.91;1775490;79;21403;-69
2021/10/11 10:02:26;;;;;;;6.77;5.63;;;;;;;15.05;39.30;101330.59;1756831;78;21546;-72
2021/10/11 10:04:58;;;;;;;7.42;5.92;;;;;;;15.11;39.69;101322.80;1779470;78;28597;-72
2021/10/11 10:07:29;;;;;;;8.60;5.87;;;;;;;15.18;39.72;101320.09;1773464;80;21094;-73
2021/10/11 10:09:57;;;;;;;7.03;5.47;;;;;;;15.31;39.26;101320.10;1758546;80;21052;-72
2021/10/11 10:12:25;;;;;;;8.37;6.13;;;;;;;15.43;39.21;101311.22;1766127;80;21526;-70
2021/10/11 10:15:03;;;;;;;9.07;6.97;;;;;;;15.43;39.21;101311.22;1772716;78;21712;-70
2021/10/11 10:17:34;;;;;;;7.63;5.50;;;;;;;15.56;39.74;101315.76;1760291;80;21768;-72
2021/10/11 10:20:13;;;;;;;9.60;6.47;;;;;;;15.70;38.52;101312.83;1760281;80;21729;-71
2021/10/11 10:22:48;;;;;;;8.40;6.33;;;;;;;15.69;38.15;101310.67;1748272;80;21705;-71
2021/10/11 10:25:15;;;;;;;8.40;5.60;;;;;;;15.68;38.23;101300.95;1779640;80;22392;-72
2021/10/11 10:27:44;;;;;;;10.00;5.97;;;;;;;15.69;38.24;101298.55;1765828;80;22280;-72
2021/10/11 10:30:19;;;;;;;9.63;5.93;;;;;;;15.70;38.20;101305.55;1759814;80;21774;-71
2021/10/11 10:33:02;;;;;;;10.27;6.20;;;;;;;15.78;38.40;101300.12;1765597;80;21659;-72
2021/10/11 10:35:36;;;;;;;10.07;6.20;;;;;;;15.90;38.38;101294.45;1729925;81;22357;-72
2021/10/11 10:38:02;;;;;;;13.47;6.63;;;;;;;16.00;38.02;101289.02;1776820;80;22163;-71
2021/10/11 10:40:33;;;;;;;10.27;6.37;;;;;;;16.09;38.08;101286.55;1773434;80;21833;-70
2021/10/11 10:43:05;;;;;;;9.70;6.50;;;;;;;16.14;37.69;101279.26;1760097;80;21712;-71
2021/10/11 10:45:34;;;;;;;8.80;6.57;;;;;;;16.18;37.76;101275.47;1781066;80;21647;-70
2021/10/11 10:48:02;;;;;;;9.97;6.63;;;;;;;16.23;36.72;101273.30;1790562;80;21698;-70
2021/10/11 10:50:32;;;;;;;9.90;6.87;;;;;;;16.18;36.86;101270.08;1775867;80;22124;-71
2021/10/11 10:53:00;;;;;;;10.80;7.70;;;;;;;16.21;37.22;101265.48;1781333;80;21714;-71
2021/10/11 10:55:27;;;;;;;9.77;7.03;;;;;;;16.27;36.68;101255.48;1776722;80;22269;-70
2021/10/11 10:58:03;;;;;;;11.57;6.80;;;;;;;16.28;36.90;101254.39;1772475;80;21839;-70
2021/10/11 11:00:29;;;;;;;10.93;6.97;;;;;;;16.28;36.79;101244.95;1769877;80;22002;-71
2021/10/11 11:02:56;;;;;;;10.53;7.07;;;;;;;16.27;36.91;101243.36;1776540;80;21740;-70
2021/10/11 11:05:27;;;;;;;8.40;6.10;;;;;;;16.26;37.24;101239.06;1769701;80;21642;-70
2021/10/11 11:07:55;;;;;;;11.80;7.30;;;;;;;16.24;36.53;101237.97;1774734;80;21712;-70
2021/10/11 11:10:25;;;;;;;9.03;6.23;;;;;;;16.20;37.30;101230.73;1761222;78;21719;-70
2021/10/11 11:13:06;;;;;;;10.77;7.00;;;;;;;16.21;36.85;101223.70;1762612;80;21701;-71
2021/10/11 11:15:35;;;;;;;9.08;6.55;;;;;;;16.21;36.99;101225.59;1771107;80;21030;-71
2021/10/11 11:18:13;;;;;;;10.43;7.00;;;;;;;16.27;37.09;101221.80;1775391;80;21163;-72
2021/10/11 11:20:41;;;;;;;11.23;7.70;;;;;;;16.35;37.36;101218.48;1774985;78;21709;-70
2021/10/11 11:23:24;;;;;;;12.20;7.70;;;;;;;16.42;36.57;101209.57;1779299;80;21046;-71
2021/10/11 11:26:11;;;;;;;11.23;7.03;;;;;;;16.49;36.57;101208.71;1769579;78;21697;-70
2021/10/11 11:28:43;;;;;;;11.87;7.43;;;;;;;16.58;36.59;101190.02;1759974;80;21719;-71
2021/10/11 11:31:17;;;;;;;8.43;6.10;;;;;;;16.62;36.54;101197.28;1760886;78;21283;-70
2021/10/11 11:33:50;;;;;;;9.63;7.60;;;;;;;16.73;36.49;101193.16;1771893;78;21031;-70